Time;durP1;ratioP1;P1;durP2;ratioP2;P2;SDS_P1;SDS_P2;PMS_P1;PMS_P2;Temp;Humidity;BMP_temperature;BMP_pressure;BME280_temperature;BME280_humidity;BME280_pressure;Samples;Min_cycle;Max_cycle;Signal;HPM_P1;HPM_P2
2021/12/26 00:02:16;;;;;;;428.05;411.85;;;;;;;19.71;37.32;100627.97;4954874;29;20039;-89
2021/12/26 00:04:57;;;;;;;833.40;796.95;;;;;;;19.69;37.66;100619.22;4967029;28;20026;-87
2021/12/26 00:07:35;;;;;;;;;;;;;;;;;;;;;
2021/12/26 00:10:15;;;;;;;422.05;406.17;;;;;;;19.68;37.55;100620.34;4975598;28;20031;-87
2021/12/26 00:12:41;;;;;;;871.95;831.42;;;;;;;19.67;37.48;100615.97;4973739;28;20106;-87
2021/12/26 00:15:10;;;;;;;823.13;787.63;;;;;;;19.66;37.30;100623.34;4971092;28;20479;-88
2021/12/26 00:17:40;;;;;;;943.67;892.75;;;;;;;19.64;36.99;100611.88;4974982;28;20043;-88
2021/12/26 00:20:26;;;;;;;;;;;;;;;;;;;;;
2021/12/26 00:23:00;;;;;;;1000.38;937.83;;;;;;;19.62;36.87;100607.84;4974421;28;20056;-88
2021/12/26 00:25:28;;;;;;;1039.28;969.67;;;;;;;19.61;36.92;100608.97;4972938;28;20064;-88
2021/12/26 00:28:14;;;;;;;1043.05;971.65;;;;;;;19.59;37.02;100606.53;4973650;28;20026;-89
2021/12/26 00:30:45;;;;;;;1019.80;952.42;;;;;;;19.59;36.89;100606.53;4972796;28;20129;-88
2021/12/26 00:33:11;;;;;;;882.28;840.28;;;;;;;19.58;36.91;100607.66;4974617;28;20058;-89
2021/12/26 00:35:47;;;;;;;;;;;;;;;;;;;;;
2021/12/26 00:38:32;;;;;;;957.80;902.80;;;;;;;19.56;36.67;100609.06;4974547;28;20047;-89
2021/12/26 00:41:08;;;;;;;;;;;;;;;;;;;;;
2021/12/26 00:43:39;;;;;;;896.05;851.83;;;;;;;19.52;36.75;100595.16;4973622;28;20315;-88
2021/12/26 00:46:31;;;;;;;1010.83;944.65;;;;;;;19.52;36.71;100602.56;4989533;28;20117;-89
2021/12/26 00:48:57;;;;;;;1006.97;943.75;;;;;;;19.50;36.84;100600.13;4973574;28;20555;-89
2021/12/26 00:51:30;;;;;;;1021.65;952.20;;;;;;;19.50;36.83;100602.88;4970523;28;20062;-89
2021/12/26 00:54:00;;;;;;;1015.85;953.08;;;;;;;19.48;36.73;100596.91;4971501;28;20035;-88
2021/12/26 00:56:30;;;;;;;1013.47;947.08;;;;;;;19.47;36.94;100600.75;4957059;28;20073;-88
2021/12/26 00:59:01;;;;;;;280.67;270.02;;;;;;;19.46;36.54;100602.69;4957355;28;20053;-87
2021/12/26 01:01:40;;;;;;;542.90;522.40;;;;;;;19.45;36.55;100606.56;4972221;28;20467;-88
2021/12/26 01:04:13;;;;;;;481.50;463.42;;;;;;;19.44;36.36;100602.16;4972727;28;20376;-88
2021/12/26 01:06:43;;;;;;;1062.88;985.72;;;;;;;19.43;36.50;100605.22;4953385;28;20057;-89
2021/12/26 01:09:24;;;;;;;349.35;336.10;;;;;;;19.42;36.24;100600.84;4960628;28;20042;-88
2021/12/26 01:12:10;;;;;;;;;;;;;;;;;;;;;
2021/12/26 01:14:55;;;;;;;;;;;;;;;;;;;;;
2021/12/26 01:17:26;;;;;;;282.92;272.10;;;;;;;19.38;36.69;100586.97;4973447;28;20035;-88
2021/12/26 01:19:55;;;;;;;469.63;452.02;;;;;;;19.37;36.70;100584.53;4962800;28;20085;-87
2021/12/26 01:22:29;;;;;;;1006.85;944.65;;;;;;;19.35;36.37;100586.75;4955307;28;20043;-89
2021/12/26 01:24:59;;;;;;;672.50;646.60;;;;;;;19.35;36.53;100587.59;4971102;28;20041;-88
2021/12/26 01:27:36;;;;;;;546.30;525.65;;;;;;;19.34;36.45;100588.69;4968575;28;20042;-88
2021/12/26 01:30:06;;;;;;;1043.30;968.40;;;;;;;19.33;36.46;100587.06;4972429;28;20090;-88
2021/12/26 01:32:36;;;;;;;885.00;841.63;;;;;;;19.31;36.46;100580.28;4972018;28;20066;-86
2021/12/26 01:35:12;;;;;;;866.67;825.85;;;;;;;19.31;36.56;100586.56;4988564;28;20101;-88
2021/12/26 01:37:42;;;;;;;1051.18;972.20;;;;;;;19.30;36.62;100582.19;4971685;28;20027;-87
2021/12/26 01:40:18;;;;;;;1069.78;994.13;;;;;;;19.29;36.66;100577.03;4963489;28;20046;-88
2021/12/26 01:42:48;;;;;;;1087.95;999.67;;;;;;;19.27;36.37;100577.31;4972078;28;20027;-86
2021/12/26 01:45:23;;;;;;;1029.72;963.13;;;;;;;19.26;36.34;100583.94;4971661;28;20033;-88
2021/12/26 01:47:56;;;;;;;273.98;263.38;;;;;;;19.26;36.48;100586.66;4971930;28;20486;-88
2021/12/26 01:50:21;;;;;;;529.05;509.20;;;;;;;19.25;36.56;100587.75;4971546;28;20034;-91
2021/12/26 01:52:54;;;;;;;1050.20;979.90;;;;;;;19.24;36.51;100586.16;4987893;28;20482;-90
2021/12/26 01:58:45;;;;;;;1068.43;993.30;;;;;;;19.21;36.66;100586.78;4955901;29;20039;-90
2021/12/26 02:01:28;;;;;;;;;;;;;;;;;;;;;
2021/12/26 02:04:00;;;;;;;356.15;342.40;;;;;;;19.19;36.39;100583.53;4969772;28;20057;-90
2021/12/26 02:06:25;;;;;;;426.17;410.13;;;;;;;19.18;36.32;100587.38;4973349;28;20058;-89
2021/12/26 02:09:07;;;;;;;629.20;605.13;;;;;;;19.17;36.69;100574.78;4977386;28;20395;-89
2021/12/26 02:11:42;;;;;;;1008.95;948.15;;;;;;;19.16;36.52;100579.47;4949776;28;20039;-89
2021/12/26 02:14:08;;;;;;;1097.88;999.90;;;;;;;19.15;36.34;100586.06;4965882;28;20059;-91
2021/12/26 02:16:56;;;;;;;1080.72;998.42;;;;;;;19.14;36.55;100583.63;4976771;28;20042;-89
2021/12/26 02:19:45;;;;;;;1020.33;946.40;;;;;;;19.13;36.44;100582.81;4977141;28;20034;-89
2021/12/26 02:22:22;;;;;;;1025.00;956.20;;;;;;;19.11;36.83;100573.28;4975873;28;20030;-89
2021/12/26 02:27:56;;;;;;;1013.85;953.47;;;;;;;19.10;36.50;100563.44;4977611;28;20050;-89
2021/12/26 02:30:35;;;;;;;1003.08;946.65;;;;;;;19.09;36.39;100570.84;4984114;28;20066;-89
2021/12/26 02:33:04;;;;;;;922.10;871.28;;;;;;;19.07;36.56;100575.81;4976189;28;20558;-88
2021/12/26 02:35:35;;;;;;;999.25;944.20;;;;;;;19.07;36.56;100575.81;4975622;28;20037;-88
2021/12/26 02:38:04;;;;;;;929.78;879.20;;;;;;;19.06;36.57;100567.91;4976499;28;20038;-88
2021/12/26 02:40:32;;;;;;;910.47;863.88;;;;;;;19.06;36.30;100567.91;4974965;28;20031;-90
2021/12/26 02:43:02;;;;;;;939.00;889.95;;;;;;;19.05;36.54;100560.78;4956242;28;20400;-89
2021/12/26 02:45:43;;;;;;;;;;;;;;;;;;;;;
2021/12/26 02:48:24;;;;;;;890.88;847.28;;;;;;;19.03;36.62;100563.84;4988891;28;20395;-90
2021/12/26 02:50:58;;;;;;;878.70;836.40;;;;;;;19.02;36.59;100567.69;4975128;28;20069;-90
2021/12/26 02:53:50;;;;;;;;;;;;;;;;;;;;;
2021/12/26 02:56:24;;;;;;;880.60;838.10;;;;;;;19.00;36.36;100559.00;4969906;28;20043;-92
2021/12/26 02:58:52;;;;;;;881.00;838.42;;;;;;;18.99;36.28;100558.16;4972547;28;20023;-90
2021/12/26 03:01:28;;;;;;;917.85;870.92;;;;;;;18.99;36.62;100549.94;4975782;28;20035;-90
2021/12/26 03:03:54;;;;;;;881.70;839.00;;;;;;;18.99;36.33;100554.63;4992132;28;20041;-90
2021/12/26 03:10:20;;;;;;;883.97;840.83;;;;;;;18.96;36.59;100542.34;4955289;29;20042;-90
2021/12/26 03:12:47;;;;;;;892.92;849.03;;;;;;;18.96;36.46;100541.53;4973648;28;20093;-91
2021/12/26 03:15:23;;;;;;;904.75;859.08;;;;;;;18.94;36.59;100530.88;4976551;28;20039;-91
2021/12/26 03:17:55;;;;;;;903.55;857.92;;;;;;;18.94;36.56;100528.16;4974842;28;20093;-90
2021/12/26 03:20:48;;;;;;;890.45;846.65;;;;;;;18.94;36.70;100532.81;4976856;28;20114;-90
2021/12/26 03:23:30;;;;;;;899.80;854.90;;;;;;;18.92;36.83;100535.84;4980651;28;20031;-91
2021/12/26 03:26:02;;;;;;;895.60;850.95;;;;;;;18.92;36.73;100526.84;4976395;28;20044;-90
2021/12/26 03:28:32;;;;;;;917.03;870.00;;;;;;;18.91;36.60;100531.50;4974693;28;20475;-91
2021/12/26 03:31:03;;;;;;;891.55;847.50;;;;;;;18.91;36.65;100530.69;4976339;28;20117;-90
2021/12/26 03:33:42;;;;;;;;;;;;;;;;;;;;;
2021/12/26 03:36:20;;;;;;;;;;;;;;;;;;;;;
2021/12/26 03:39:08;;;;;;;930.65;882.08;;;;;;;18.88;36.40;100526.66;4975827;28;20042;-90
2021/12/26 03:41:34;;;;;;;915.10;867.83;;;;;;;18.88;36.62;100531.31;4973507;28;20039;-90
2021/12/26 03:44:18;;;;;;;865.20;824.10;;;;;;;18.86;36.46;100520.66;4974945;28;20035;-91
2021/12/26 03:46:43;;;;;;;860.33;819.95;;;;;;;18.86;36.62;100528.06;4975644;28;20039;-90
2021/12/26 03:49:17;;;;;;;869.13;827.60;;;;;;;18.86;36.24;100525.31;4960498;28;20038;-90
2021/12/26 03:51:47;;;;;;;887.10;843.30;;;;;;;18.84;36.49;100520.16;4968416;28;20034;-90
2021/12/26 03:54:19;;;;;;;879.63;836.78;;;;;;;18.84;36.75;100525.63;4954515;29;20377;-89
2021/12/26 03:56:47;;;;;;;871.95;830.05;;;;;;;18.83;36.61;100524.00;4970121;28;20027;-90
2021/12/26 03:59:35;;;;;;;886.30;842.85;;;;;;;18.83;36.35;100524.00;4965508;28;20138;-90
2021/12/26 04:02:06;;;;;;;891.00;847.00;;;;;;;18.83;36.41;100520.47;4967343;28;20097;-89
2021/12/26 04:04:45;;;;;;;855.30;815.60;;;;;;;18.80;36.43;100525.44;4972886;28;20042;-89
2021/12/26 04:07:24;;;;;;;860.22;819.95;;;;;;;18.81;36.69;100520.75;4974397;28;20038;-89
2021/12/26 04:09:52;;;;;;;851.40;812.20;;;;;;;18.79;36.51;100526.53;4969860;28;20043;-89
2021/12/26 04:12:23;;;;;;;883.87;840.57;;;;;;;18.80;36.53;100521.88;4983232;28;20085;-89
2021/12/26 04:14:51;;;;;;;862.03;821.45;;;;;;;18.79;36.47;100517.50;4957882;28;20031;-89
2021/12/26 04:17:26;;;;;;;885.20;841.92;;;;;;;18.77;36.56;100517.84;4975005;28;20049;-89
2021/12/26 04:19:52;;;;;;;837.35;799.35;;;;;;;18.76;36.48;100510.72;4986068;28;20070;-89
2021/12/26 04:22:17;;;;;;;848.63;809.75;;;;;;;18.76;36.53;100510.72;4968982;28;20443;-90
2021/12/26 04:24:45;;;;;;;870.22;828.42;;;;;;;18.75;36.57;100514.56;4960597;28;20027;-90
2021/12/26 04:27:31;;;;;;;;;;;;;;;;;;;;;
2021/12/26 04:30:32;;;;;;;808.97;774.17;;;;;;;18.75;36.77;100513.75;4976205;28;20286;-89
2021/12/26 04:33:08;;;;;;;;;;;;;;;;;;;;;
2021/12/26 04:35:37;;;;;;;805.67;771.08;;;;;;;18.73;36.61;100510.50;4973349;28;20471;-89
2021/12/26 04:38:05;;;;;;;870.90;829.53;;;;;;;18.72;36.32;100512.44;4965601;28;20039;-91
2021/12/26 04:40:35;;;;;;;842.88;804.40;;;;;;;18.72;36.62;100508.84;4938516;28;20035;-90
2021/12/26 04:43:15;;;;;;;833.10;795.72;;;;;;;18.70;36.29;100503.69;4966460;28;20487;-89
2021/12/26 04:46:08;;;;;;;;;;;;;;;;;;;;;
2021/12/26 04:48:46;;;;;;;;;;;;;;;;;;;;;
2021/12/26 04:51:59;;;;;;;893.70;849.42;;;;;;;18.69;36.36;100501.25;4974971;28;20033;-90
2021/12/26 04:54:22;;;;;;;;;;;;;;;;;;;;;
2021/12/26 04:56:52;;;;;;;844.60;806.13;;;;;;;18.67;36.30;100498.84;4975778;28;20505;-90
2021/12/26 04:59:17;;;;;;;845.47;806.75;;;;;;;18.66;36.44;100496.41;4973673;28;20039;-90
2021/12/26 05:01:54;;;;;;;875.25;833.30;;;;;;;18.65;36.29;100503.81;4974720;28;20039;-91
2021/12/26 05:04:26;;;;;;;863.67;822.83;;;;;;;18.65;36.25;100503.81;4963658;28;20066;-90
2021/12/26 05:07:03;;;;;;;879.22;836.72;;;;;;;18.63;36.48;100500.56;4962374;28;20082;-90
2021/12/26 05:09:38;;;;;;;875.25;833.08;;;;;;;18.63;36.03;100500.56;4971086;28;20039;-90
2021/12/26 05:12:25;;;;;;;;;;;;;;;;;;;;;
2021/12/26 05:15:08;;;;;;;;;;;;;;;;;;;;;
2021/12/26 05:17:55;;;;;;;847.17;808.35;;;;;;;18.60;36.48;100493.75;4974149;28;20061;-90
2021/12/26 05:20:31;;;;;;;833.78;796.42;;;;;;;18.60;36.23;100490.22;4964021;28;20039;-90
2021/12/26 05:23:04;;;;;;;839.85;801.95;;;;;;;18.59;36.34;100477.63;4973273;28;20073;-90
2021/12/26 05:25:32;;;;;;;854.92;815.38;;;;;;;18.58;36.40;100481.50;4973384;28;20129;-90
2021/12/26 05:28:25;;;;;;;915.10;867.88;;;;;;;18.57;36.12;100475.22;4972348;28;20043;-91
2021/12/26 05:30:50;;;;;;;881.78;838.80;;;;;;;18.56;36.41;100476.31;4973714;28;20047;-90
2021/12/26 05:33:18;;;;;;;854.83;815.22;;;;;;;18.56;36.14;100481.00;4973456;28;20070;-91
2021/12/26 05:35:52;;;;;;;939.85;889.97;;;;;;;18.54;36.29;100475.81;4973541;28;20035;-91
2021/12/26 05:38:42;;;;;;;882.25;839.60;;;;;;;18.53;36.50;100466.00;4973640;28;20039;-91
2021/12/26 05:41:17;;;;;;;862.63;822.33;;;;;;;18.53;36.39;100466.00;4972548;28;20045;-91
2021/12/26 05:43:56;;;;;;;905.38;859.42;;;;;;;18.52;36.38;100469.84;4973315;28;20073;-91
2021/12/26 05:46:41;;;;;;;;;;;;;;;;;;;;;
2021/12/26 05:49:09;;;;;;;860.15;819.97;;;;;;;18.50;36.39;100466.59;4973461;28;20027;-90
2021/12/26 05:51:42;;;;;;;932.58;883.47;;;;;;;18.50;35.96;100465.78;4972503;28;20534;-89
2021/12/26 05:54:09;;;;;;;820.08;784.25;;;;;;;18.49;36.31;100467.69;4971862;28;20043;-90
2021/12/26 05:56:36;;;;;;;834.15;796.78;;;;;;;18.48;36.36;100463.34;4972225;28;20031;-89
2021/12/26 05:59:14;;;;;;;848.90;809.83;;;;;;;18.48;36.26;100459.81;4955270;28;20046;-89
2021/12/26 06:01:40;;;;;;;861.53;821.17;;;;;;;18.48;36.04;100465.28;4970688;28;20291;-89
2021/12/26 06:04:18;;;;;;;904.35;858.33;;;;;;;18.46;36.29;100464.78;4973549;28;20113;-88
2021/12/26 06:06:51;;;;;;;833.28;796.08;;;;;;;18.44;36.39;100459.59;4972415;28;20041;-89
2021/12/26 06:09:29;;;;;;;;;;;;;;;;;;;;;
2021/12/26 06:12:03;;;;;;;918.42;870.92;;;;;;;18.44;36.33;100462.31;4973211;28;20034;-89
2021/12/26 06:14:36;;;;;;;822.90;786.83;;;;;;;18.43;36.28;100474.38;4968904;28;20063;-89
2021/12/26 06:20:16;;;;;;;;;;;;;;;;;;;;;
2021/12/26 06:22:46;;;;;;;827.47;790.88;;;;;;;18.40;36.22;100472.25;4973363;28;20023;-90
2021/12/26 06:25:29;;;;;;;858.05;818.10;;;;;;;18.38;36.39;100469.81;4970075;28;20102;-90
2021/12/26 06:28:17;;;;;;;;;;;;;;;;;;;;;
2021/12/26 06:31:03;;;;;;;843.42;804.83;;;;;;;18.37;36.23;100465.47;4973168;28;20035;-90
2021/12/26 06:33:39;;;;;;;824.72;788.50;;;;;;;18.37;36.22;100473.69;4964574;28;20117;-90
2021/12/26 06:36:18;;;;;;;;;;;;;;;;;;;;;
2021/12/26 06:38:54;;;;;;;819.17;783.15;;;;;;;18.35;36.56;100475.09;4962658;28;20027;-90
2021/12/26 06:41:40;;;;;;;;;;;;;;;;;;;;;
2021/12/26 06:44:08;;;;;;;836.00;798.60;;;;;;;18.33;36.26;100474.56;4975352;28;20037;-89
2021/12/26 06:46:41;;;;;;;891.08;846.97;;;;;;;18.32;36.48;100465.56;4955800;28;20122;-89
2021/12/26 06:49:18;;;;;;;899.08;853.88;;;;;;;18.31;36.43;100458.47;4969944;28;20039;-94
2021/12/26 06:52:01;;;;;;;827.13;790.53;;;;;;;18.31;36.39;100460.38;4975851;28;20027;-86
2021/12/26 06:54:45;;;;;;;835.50;798.05;;;;;;;18.29;36.33;100460.69;4975507;28;20089;-90
2021/12/26 06:57:21;;;;;;;;;;;;;;;;;;;;;
2021/12/26 06:59:46;;;;;;;846.65;808.03;;;;;;;18.28;36.08;100450.88;4976077;28;20475;-92
2021/12/26 07:02:14;;;;;;;837.80;800.08;;;;;;;18.27;36.29;100449.25;4975174;28;20114;-90
2021/12/26 07:04:42;;;;;;;902.15;856.70;;;;;;;18.27;36.50;100454.72;4975499;28;20062;-89
2021/12/26 07:07:10;;;;;;;893.55;849.25;;;;;;;18.26;36.38;100449.53;4976834;28;20031;-89
2021/12/26 07:09:43;;;;;;;885.42;842.17;;;;;;;18.25;36.54;100447.94;4977833;28;20575;-90
2021/12/26 07:12:11;;;;;;;876.55;834.38;;;;;;;18.25;36.21;100447.94;4976181;28;20113;-93
2021/12/26 07:14:48;;;;;;;;;;;;;;;;;;;;;
2021/12/26 07:17:19;;;;;;;867.80;826.80;;;;;;;18.23;36.56;100444.69;4976435;28;20034;-88
2021/12/26 07:19:45;;;;;;;868.30;826.95;;;;;;;18.22;36.38;100445.78;4977338;28;20042;-89
2021/12/26 07:22:15;;;;;;;854.10;814.65;;;;;;;18.21;36.44;100449.63;4974730;28;20042;-90
2021/12/26 07:24:47;;;;;;;864.90;824.22;;;;;;;18.20;36.49;100437.91;4975250;28;20031;-90
2021/12/26 07:27:35;;;;;;;;;;;;;;;;;;;;;
2021/12/26 07:30:03;;;;;;;;;;;;;;;18.17;36.55;100452.97;4976562;28;20037;-90
2021/12/26 07:32:39;;;;;;;;;;;;;;;;;;;;;
2021/12/26 07:35:12;;;;;;;869.92;828.13;;;;;;;18.15;36.50;100444.25;4975011;28;20055;-89
2021/12/26 07:37:47;;;;;;;941.45;887.38;;;;;;;18.15;36.42;100440.72;4957320;28;20027;-89
2021/12/26 07:40:18;;;;;;;778.22;745.78;;;;;;;18.14;36.69;100447.28;4987637;28;20042;-89
2021/12/26 07:42:57;;;;;;;788.20;754.97;;;;;;;18.14;36.50;100455.50;4964298;28;20121;-92
2021/12/26 07:45:27;;;;;;;797.63;763.25;;;;;;;18.14;36.41;100450.03;4975071;28;20045;-93
2021/12/26 07:48:00;;;;;;;802.78;768.15;;;;;;;18.13;36.63;100460.16;4965370;28;20027;-93
2021/12/26 07:50:26;;;;;;;811.08;775.75;;;;;;;18.12;36.67;100458.53;4986443;28;20026;-92
2021/12/26 07:53:04;;;;;;;;;;;;;;;;;;;;;
2021/12/26 07:55:41;;;;;;;840.17;801.67;;;;;;;18.11;36.55;100467.84;4961971;28;20402;-94
2021/12/26 07:58:21;;;;;;;;;;;;;;;;;;;;;
2021/12/26 08:00:55;;;;;;;843.58;804.58;;;;;;;18.10;36.42;100465.41;4976446;28;20038;-93
2021/12/26 08:03:35;;;;;;;;;;;;;;;;;;;;;
2021/12/26 08:06:18;;;;;;;;;;;;;;;;;;;;;
2021/12/26 08:08:49;;;;;;;856.28;815.78;;;;;;;18.08;36.98;100475.84;4983980;28;20045;-93
2021/12/26 08:11:17;;;;;;;859.45;818.63;;;;;;;18.08;36.40;100471.16;4986949;28;20058;-93
2021/12/26 08:13:43;;;;;;;860.65;819.85;;;;;;;18.08;36.50;100471.16;4973108;28;20030;-90
2021/12/26 08:16:18;;;;;;;848.65;809.28;;;;;;;18.09;36.72;100477.44;4975252;28;20515;-91
2021/12/26 08:18:44;;;;;;;855.80;815.92;;;;;;;18.09;36.99;100481.00;4975103;28;20030;-92
2021/12/26 08:21:19;;;;;;;;;;;;;;;;;;;;;
2021/12/26 08:23:57;;;;;;;864.55;823.35;;;;;;;18.12;37.06;100469.47;4976071;28;20031;-93
2021/12/26 08:26:33;;;;;;;;;;;;;;;;;;;;;
2021/12/26 08:29:02;;;;;;;867.40;825.88;;;;;;;18.18;37.11;100464.72;4975842;28;20041;-92
2021/12/26 08:31:29;;;;;;;881.85;838.25;;;;;;;18.22;37.37;100459.44;4975539;28;20109;-92
2021/12/26 08:33:59;;;;;;;873.95;831.17;;;;;;;18.24;37.37;100460.78;4974445;28;20046;-92
2021/12/26 08:36:27;;;;;;;878.65;835.50;;;;;;;18.28;37.54;100467.28;4975331;28;20513;-90
2021/12/26 08:39:03;;;;;;;908.23;859.93;;;;;;;18.30;37.48;100465.06;4974657;28;20109;-91
2021/12/26 08:41:31;;;;;;;898.50;851.85;;;;;;;18.34;37.40;100467.97;4991091;28;20282;-91
2021/12/26 08:44:01;;;;;;;914.10;864.63;;;;;;;18.37;37.39;100457.28;4959921;28;20047;-91
2021/12/26 08:46:29;;;;;;;901.10;854.25;;;;;;;18.41;37.43;100457.47;4974643;28;20468;-91
2021/12/26 08:48:57;;;;;;;922.78;871.78;;;;;;;18.44;37.71;100462.31;4957795;28;20042;-91
2021/12/26 08:51:23;;;;;;;910.63;861.72;;;;;;;18.47;37.59;100463.66;4990166;28;20483;-91
2021/12/26 08:53:51;;;;;;;909.08;860.33;;;;;;;18.50;37.79;100461.13;4974142;28;20027;-91
2021/12/26 08:56:16;;;;;;;914.17;864.72;;;;;;;18.54;37.64;100464.06;4966820;28;20118;-91
2021/12/26 08:58:44;;;;;;;870.30;828.40;;;;;;;18.57;37.66;100453.34;4973864;28;20121;-91
2021/12/26 09:01:17;;;;;;;872.30;830.00;;;;;;;18.60;37.98;100452.72;4973166;28;20053;-91
2021/12/26 09:03:45;;;;;;;876.42;833.53;;;;;;;18.64;38.03;100452.13;4987303;28;20034;-90
2021/12/26 09:06:13;;;;;;;898.20;851.40;;;;;;;18.66;38.00;100458.91;4973346;28;20038;-92
2021/12/26 09:08:43;;;;;;;917.03;866.97;;;;;;;18.70;38.25;100448.19;4975842;28;20547;-90
2021/12/26 09:11:20;;;;;;;928.22;876.30;;;;;;;18.73;38.20;100458.50;4966480;28;20286;-92
2021/12/26 09:13:53;;;;;;;938.72;884.78;;;;;;;18.76;37.99;100461.47;4974222;28;20551;-91
2021/12/26 09:16:19;;;;;;;935.60;882.33;;;;;;;18.78;38.11;100461.16;4956839;28;20035;-91
2021/12/26 09:18:47;;;;;;;933.53;880.63;;;;;;;18.80;37.88;100464.41;4986697;28;20027;-90
2021/12/26 09:21:17;;;;;;;950.22;893.58;;;;;;;18.83;37.86;100468.47;4963699;28;20460;-91
2021/12/26 09:23:55;;;;;;;884.35;840.40;;;;;;;18.85;38.01;100458.84;4963776;28;20047;-92
2021/12/26 09:26:21;;;;;;;890.05;844.95;;;;;;;18.88;37.93;100462.91;4974982;28;20026;-88
2021/12/26 09:28:54;;;;;;;897.88;851.10;;;;;;;18.90;38.43;100464.22;4975296;28;20133;-89
2021/12/26 09:31:24;;;;;;;899.25;852.95;;;;;;;18.92;38.42;100467.44;4991290;28;20053;-94
2021/12/26 09:33:52;;;;;;;895.97;849.70;;;;;;;18.95;38.71;100469.56;4938684;28;20125;-89
2021/12/26 09:36:41;;;;;;;903.15;856.00;;;;;;;18.98;38.66;100473.63;4944874;28;20086;-90
2021/12/26 09:39:15;;;;;;;890.83;844.60;;;;;;;18.99;38.92;100473.31;4974930;28;20035;-92
2021/12/26 09:41:42;;;;;;;890.75;844.63;;;;;;;19.02;38.80;100474.63;4988527;28;20039;-94
2021/12/26 09:44:11;;;;;;;895.97;849.65;;;;;;;19.02;38.80;100475.47;4974484;28;20038;-90
2021/12/26 09:46:47;;;;;;;911.35;860.88;;;;;;;19.05;38.78;100479.50;4973109;28;20034;-92
2021/12/26 09:49:15;;;;;;;875.58;832.35;;;;;;;19.06;38.50;100469.38;4972796;28;20049;-93
2021/12/26 09:51:53;;;;;;;;;;;;;;;;;;;;;
2021/12/26 09:54:22;;;;;;;896.80;849.85;;;;;;;19.09;38.86;100463.28;4963481;28;20023;-93
2021/12/26 09:56:48;;;;;;;900.47;853.15;;;;;;;19.10;38.50;100453.94;4961984;28;20031;-93
2021/12/26 09:59:22;;;;;;;902.50;854.90;;;;;;;19.11;38.41;100455.56;4968875;28;20110;-91
2021/12/26 10:04:45;;;;;;;887.67;842.85;;;;;;;19.13;38.66;100442.38;4962118;28;20066;-94
2021/12/26 10:07:22;;;;;;;882.38;838.38;;;;;;;19.15;38.51;100440.13;4966345;28;20042;-92
2021/12/26 10:10:05;;;;;;;872.47;829.30;;;;;;;19.16;38.66;100431.63;4980951;28;20043;-95
2021/12/26 10:12:44;;;;;;;881.13;837.33;;;;;;;19.17;38.60;100433.22;4956677;28;20035;-94
2021/12/26 10:15:19;;;;;;;875.13;832.08;;;;;;;19.19;38.69;100421.97;4974894;28;20065;-92
2021/12/26 10:17:54;;;;;;;888.10;842.97;;;;;;;19.20;38.89;100429.91;4978481;28;20050;-93
2021/12/26 10:20:36;;;;;;;896.33;850.17;;;;;;;19.22;38.60;100427.63;4958078;29;20448;-94
2021/12/26 10:23:28;;;;;;;901.08;853.92;;;;;;;19.22;38.44;100413.94;4970280;28;20031;-91
2021/12/26 10:25:56;;;;;;;906.83;858.65;;;;;;;19.22;38.10;100426.81;4964679;28;20039;-92
2021/12/26 10:28:21;;;;;;;909.30;860.23;;;;;;;19.22;38.10;100415.88;4991876;28;20034;-95
2021/12/26 10:31:09;;;;;;;927.50;875.50;;;;;;;19.23;37.99;100420.25;4978147;28;20143;-92
2021/12/26 10:33:52;;;;;;;926.03;874.42;;;;;;;19.23;37.62;100421.06;4991899;28;20045;-90
2021/12/26 10:36:17;;;;;;;929.03;876.72;;;;;;;19.22;37.59;100411.19;4959657;28;20144;-91
2021/12/26 10:39:12;;;;;;;938.05;883.50;;;;;;;19.23;37.28;100412.03;4977632;28;20075;-90
2021/12/26 10:41:55;;;;;;;959.03;901.42;;;;;;;19.22;36.97;100408.47;4972542;28;20356;-93
2021/12/26 10:44:35;;;;;;;893.35;847.70;;;;;;;19.22;36.60;100407.66;4974018;28;20035;-93
2021/12/26 10:47:16;;;;;;;883.65;839.38;;;;;;;19.22;36.79;100402.19;4973726;28;20031;-93
2021/12/26 10:50:11;;;;;;;899.80;853.28;;;;;;;19.22;36.62;100400.25;4981788;28;20034;-93
2021/12/26 10:52:42;;;;;;;897.90;851.53;;;;;;;19.22;36.75;100396.72;4975499;28;20042;-92
2021/12/26 10:55:15;;;;;;;899.15;852.30;;;;;;;19.22;36.83;100396.72;4982494;28;20397;-93
2021/12/26 10:57:51;;;;;;;911.17;862.17;;;;;;;19.20;36.17;100386.09;4971526;28;20115;-93
2021/12/26 11:00:21;;;;;;;909.88;860.97;;;;;;;19.21;36.10;100390.44;4965621;28;20031;-93
2021/12/26 11:02:51;;;;;;;915.15;865.42;;;;;;;19.21;36.07;100386.88;4966021;28;20034;-94
2021/12/26 11:05:28;;;;;;;916.00;866.17;;;;;;;19.21;36.04;100384.94;4971504;28;20114;-91
2021/12/26 11:08:03;;;;;;;928.42;876.58;;;;;;;19.20;35.88;100386.09;4973032;28;20031;-86
2021/12/26 11:10:42;;;;;;;921.88;870.78;;;;;;;19.21;35.77;100384.16;4974945;28;20031;-91
2021/12/26 11:13:17;;;;;;;924.53;873.10;;;;;;;19.21;35.90;100386.88;4974473;28;20046;-90
2021/12/26 11:15:43;;;;;;;904.35;857.25;;;;;;;19.20;35.71;100383.34;4973495;28;20042;-91
2021/12/26 11:18:11;;;;;;;930.55;877.95;;;;;;;19.21;35.91;100393.16;4973438;28;20054;-91
2021/12/26 11:20:42;;;;;;;935.20;881.77;;;;;;;19.21;35.55;100378.69;4973411;28;20074;-91
2021/12/26 11:23:10;;;;;;;943.60;888.55;;;;;;;19.20;35.72;100377.88;4973744;28;20426;-91
2021/12/26 11:25:41;;;;;;;938.20;884.03;;;;;;;19.21;35.85;100378.69;4977206;28;20031;-90
2021/12/26 11:28:09;;;;;;;954.47;897.45;;;;;;;19.21;35.52;100376.75;4963458;28;20031;-90
2021/12/26 11:30:34;;;;;;;888.88;844.38;;;;;;;19.21;35.65;100374.00;4966625;28;20058;-88
2021/12/26 11:33:01;;;;;;;880.40;836.63;;;;;;;19.21;35.83;100374.00;4968114;28;22399;-90
2021/12/26 11:35:29;;;;;;;891.40;846.38;;;;;;;19.23;35.97;100371.78;4988564;28;20532;-90
2021/12/26 11:37:55;;;;;;;895.58;849.42;;;;;;;19.22;36.13;100370.13;4973304;28;20077;-88
2021/12/26 11:40:22;;;;;;;892.70;847.20;;;;;;;19.23;36.15;100360.81;4971852;28;20038;-86
2021/12/26 11:43:41;;;;;;;904.13;856.90;;;;;;;19.24;36.25;100365.16;4973354;28;20042;-90
2021/12/26 11:46:34;;;;;;;899.88;853.42;;;;;;;19.26;36.24;100361.31;4955360;28;20053;-91
2021/12/26 11:49:09;;;;;;;903.45;856.13;;;;;;;19.27;36.16;100369.22;4971229;28;20035;-92
2021/12/26 11:51:59;;;;;;;905.00;857.33;;;;;;;19.27;36.13;100374.69;4971469;28;20043;-89
2021/12/26 11:54:43;;;;;;;903.65;856.58;;;;;;;19.29;36.19;100377.94;4971293;28;20129;-88
2021/12/26 11:57:31;;;;;;;914.90;865.78;;;;;;;19.30;36.23;100365.03;4973196;28;20027;-91
2021/12/26 12:00:05;;;;;;;;;;;;;;;19.29;36.28;100364.22;4974107;28;20034;-93
2021/12/26 12:02:34;;;;;;;901.50;854.47;;;;;;;19.31;36.49;100358.47;4972679;28;20717;-93
2021/12/26 12:05:23;;;;;;;905.33;857.47;;;;;;;19.31;36.42;100358.47;4970085;28;20051;-89
2021/12/26 12:08:00;;;;;;;896.08;849.58;;;;;;;19.32;36.22;100349.91;4965676;28;20042;-88
2021/12/26 12:10:42;;;;;;;914.05;864.28;;;;;;;19.34;36.21;100350.41;4971041;28;20063;-89
2021/12/26 12:13:29;;;;;;;910.45;861.88;;;;;;;19.34;36.24;100347.69;4972372;28;20035;-88
2021/12/26 12:15:57;;;;;;;912.45;863.35;;;;;;;19.35;36.12;100352.06;4967853;28;20031;-88
2021/12/26 12:18:36;;;;;;;914.55;864.67;;;;;;;19.37;36.13;100346.25;4977687;28;20070;-87
2021/12/26 12:21:04;;;;;;;;;;;;;;;19.35;36.15;100343.84;4977135;28;20034;-88
2021/12/26 12:23:30;;;;;;;907.03;859.15;;;;;;;19.35;36.40;100343.84;4971342;28;20363;-87
2021/12/26 12:25:55;;;;;;;897.88;851.72;;;;;;;19.37;36.33;100344.31;4972306;28;20065;-85
2021/12/26 12:28:28;;;;;;;905.92;858.60;;;;;;;19.39;36.36;100352.22;4943616;28;20495;-84
2021/12/26 12:31:14;;;;;;;903.40;855.90;;;;;;;19.39;36.28;100338.53;4972468;28;20471;-85
2021/12/26 12:33:39;;;;;;;901.47;854.53;;;;;;;19.40;36.02;100337.41;4970376;28;20031;-85